Time;durP1;ratioP1;P1;durP2;ratioP2;P2;SDS_P1;SDS_P2;PMS_P1;PMS_P2;Temp;Humidity;BMP_temperature;BMP_pressure;BME280_temperature;BME280_humidity;BME280_pressure;Samples;Min_cycle;Max_cycle;Signal;HPM_P1;HPM_P2
2022/05/09 00:01:22;;;;;;;;;;;;;;;12.43;75.50;93353.66;2058897;69;20478;-71
2022/05/09 00:03:47;;;;;;;;;;;;;;;12.51;74.56;93361.16;2058606;69;20057;-71
2022/05/09 00:06:13;;;;;;;;;;;;;;;12.48;74.14;93356.75;2058418;69;20215;-70
2022/05/09 00:08:43;;;;;;;;;;;;;;;12.39;74.47;93363.97;2058726;69;20419;-70
2022/05/09 00:11:09;;;;;;;;;;;;;;;12.31;74.18;93361.34;2058804;69;20478;-70
2022/05/09 00:13:35;;;;;;;;;;;;;;;12.39;74.84;93359.06;2058747;69;20143;-70
2022/05/09 00:16:01;;;;;;;;;;;;;;;12.40;75.00;93360.53;2058568;69;20117;-71
2022/05/09 00:18:26;;;;;;;;;;;;;;;12.44;74.57;93360.06;2058659;69;20089;-69
2022/05/09 00:24:21;;;;;;;;;;;;;;;12.44;75.11;93360.06;2058738;69;20054;-70
2022/05/09 00:26:49;;;;;;;;;;;;;;;12.51;74.73;93361.16;2071711;69;20421;-69
2022/05/09 00:29:15;;;;;;;;;;;;;;;12.66;73.63;93361.47;2071752;69;20432;-70
2022/05/09 00:31:43;;;;;;;;;;;;;;;12.51;74.59;93356.28;2058384;69;20458;-70
2022/05/09 00:34:10;;;;;;;;;;;;;;;12.51;74.51;93359.09;2058523;69;20099;-70
2022/05/09 00:36:36;;;;;;;;;;;;;;;12.46;75.01;93346.81;2058572;69;20470;-71
2022/05/09 00:39:01;;;;;;;;;;;;;;;12.26;75.41;93356.78;2058567;69;20069;-70
2022/05/09 00:44:55;;;;;;;;;;;;;;;12.27;74.98;93351.88;2058810;69;20498;-70
2022/05/09 00:47:21;;;;;;;;;;;;;;;12.27;74.51;93346.97;2058681;69;20077;-70
2022/05/09 00:53:15;;;;;;;;;;;;;;;12.07;75.92;93352.03;2058608;69;20049;-69
2022/05/09 00:55:42;;;;;;;;;;;;;;;12.21;74.04;93352.97;2058625;69;20046;-70
2022/05/09 00:58:14;;;;;;;;;;;;;;;12.18;74.40;93356.25;2058519;69;20057;-71
2022/05/09 01:00:41;;;;;;;;;;;;;;;12.06;74.95;93358.31;2058608;69;20138;-69
2022/05/09 01:03:09;;;;;;;;;;;;;;;12.04;74.98;93353.25;2058751;69;20062;-71
2022/05/09 01:05:36;;;;;;;;;;;;;;;11.95;76.27;93354.78;2058603;69;20465;-70
2022/05/09 01:11:31;;;;;;;;;;;;;;;12.30;73.25;93353.50;2058708;69;20086;-70
2022/05/09 01:14:03;;;;;;;;;;;;;;;12.24;74.35;93353.84;2058788;69;20049;-70
2022/05/09 01:16:28;;;;;;;;;;;;;;;12.21;74.00;93346.59;2058788;69;20090;-70
2022/05/09 01:18:56;;;;;;;;;;;;;;;12.04;74.07;93352.50;2058825;69;20101;-70
2022/05/09 01:21:36;;;;;;;;;;;;;;;11.97;75.14;93348.56;2058491;69;20509;-72
2022/05/09 01:27:30;;;;;;;;;;;;;;;11.74;75.69;93351.94;2058190;69;20140;-71
2022/05/09 01:30:00;;;;;;;;;;;;;;;11.73;75.38;93358.19;2058416;69;20057;-70
2022/05/09 01:32:34;;;;;;;;;;;;;;;11.78;74.54;93354.31;2058614;69;20077;-71
2022/05/09 01:35:10;;;;;;;;;;;;;;;11.78;75.66;93360.69;2058717;69;20134;-71
2022/05/09 01:37:36;;;;;;;;;;;;;;;11.76;75.81;93354.16;2058695;69;20272;-70
2022/05/09 01:40:02;;;;;;;;;;;;;;;11.82;74.56;93358.16;2058670;69;20054;-70
2022/05/09 01:45:55;;;;;;;;;;;;;;;11.92;75.03;93360.91;2058820;69;20048;-70
2022/05/09 01:54:34;;;;;;;;;;;;;;;11.90;76.22;93367.16;2058833;69;20049;-72
2022/05/09 01:57:00;;;;;;;;;;;;;;;11.87;76.45;93365.56;2058684;69;20120;-74
2022/05/09 01:59:27;;;;;;;;;;;;;;;11.90;76.90;93366.41;2058828;69;20562;-73
2022/05/09 02:01:58;;;;;;;;;;;;;;;12.05;75.34;93368.84;2058767;69;20054;-71
2022/05/09 02:04:24;;;;;;;;;;;;;;;12.05;75.46;93368.84;2058654;69;20046;-73
2022/05/09 02:06:50;;;;;;;;;;;;;;;12.12;74.03;93367.16;2058878;69;20053;-70
2022/05/09 02:09:16;;;;;;;;;;;;;;;11.91;77.50;93363.00;2071543;69;20092;-72
2022/05/09 02:15:10;;;;;;;;;;;;;;;11.68;79.01;93363.56;2058754;69;20069;-70
2022/05/09 02:17:37;;;;;;;;;;;;;;;12.02;76.76;93360.84;2058564;69;20458;-72
2022/05/09 02:23:31;;;;;;;;;;;;;;;12.00;76.29;93358.63;2058951;69;20057;-69
2022/05/09 02:25:56;;;;;;;;;;;;;;;11.82;77.84;93363.81;2059133;69;20066;-69
2022/05/09 02:28:23;;;;;;;;;;;;;;;12.07;76.29;93368.97;2058893;69;20050;-70
2022/05/09 02:34:17;;;;;;;;;;;;;;;11.92;77.16;93367.31;2059118;69;20138;-69
2022/05/09 02:36:42;;;;;;;;;;;;;;;11.98;76.94;93364.13;2059115;69;20478;-69
2022/05/09 02:39:08;;;;;;;;;;;;;;;12.20;75.57;93359.97;2059176;69;20095;-71
2022/05/09 02:41:33;;;;;;;;;;;;;;;12.16;77.14;93358.97;2058937;69;20094;-71
2022/05/09 02:43:59;;;;;;;;;;;;;;;12.20;76.96;93359.97;2059113;69;20404;-70
2022/05/09 02:46:25;;;;;;;;;;;;;;;12.15;76.99;93355.41;2059159;69;20058;-71
2022/05/09 02:48:51;;;;;;;;;;;;;;;12.11;77.35;93362.88;2059073;69;20430;-72
2022/05/09 02:51:17;;;;;;;;;;;;;;;12.11;77.40;93363.59;2059252;69;20046;-71
2022/05/09 02:53:42;;;;;;;;;;;;;;;12.14;76.96;93367.28;2059253;69;20082;-70
2022/05/09 02:56:08;;;;;;;;;;;;;;;12.18;76.44;93367.53;2059012;69;20057;-71
2022/05/09 02:58:34;;;;;;;;;;;;;;;12.12;78.06;93369.97;2059251;69;20089;-74
2022/05/09 03:00:59;;;;;;;;;;;;;;;12.09;77.10;93369.09;2059284;69;20046;-71
2022/05/09 03:06:09;;;;;;;;;;;;;;;12.21;76.06;93372.72;2059235;69;20061;-70
2022/05/09 03:08:35;;;;;;;;;;;;;;;12.24;76.65;93373.59;2058983;69;20042;-72
2022/05/09 03:11:00;;;;;;;;;;;;;;;12.28;76.86;93370.28;2059195;69;20538;-71
2022/05/09 03:13:26;;;;;;;;;;;;;;;12.26;76.56;93373.72;2072289;69;20538;-71
2022/05/09 03:15:51;;;;;;;;;;;;;;;12.26;76.64;93370.16;2059077;69;20073;-71
2022/05/09 03:18:18;;;;;;;;;;;;;;;12.29;76.14;93369.69;2058873;69;20050;-71
2022/05/09 03:20:45;;;;;;;;;;;;;;;12.38;76.07;93371.69;2059118;69;20049;-71
2022/05/09 03:23:11;;;;;;;;;;;;;;;12.33;76.67;93372.78;2072103;69;20196;-72
2022/05/09 03:25:37;;;;;;;;;;;;;;;12.38;76.49;93370.97;2059211;69;20062;-71
2022/05/09 03:28:03;;;;;;;;;;;;;;;12.38;76.37;93368.88;2059021;69;20123;-71
2022/05/09 03:30:30;;;;;;;;;;;;;;;12.46;75.90;93375.06;2059088;69;20065;-71
2022/05/09 03:32:55;;;;;;;;;;;;;;;12.40;77.56;93374.66;2059028;69;20050;-71
2022/05/09 03:35:20;;;;;;;;;;;;;;;12.44;76.07;93377.00;2059286;69;20077;-70
2022/05/09 03:37:46;;;;;;;;;;;;;;;12.40;76.33;93369.00;2059059;69;20169;-70
2022/05/09 03:40:11;;;;;;;;;;;;;;;12.47;76.24;93364.50;2059188;69;20154;-70
2022/05/09 03:42:37;;;;;;;;;;;;;;;12.36;77.62;93374.38;2059167;69;20501;-72
2022/05/09 03:45:03;;;;;;;;;;;;;;;12.41;77.24;93375.38;2059153;69;20057;-73
2022/05/09 03:47:29;;;;;;;;;;;;;;;12.46;76.30;93374.28;2059027;69;20049;-73
2022/05/09 03:49:57;;;;;;;;;;;;;;;12.49;76.52;93378.00;2059089;69;20058;-72
2022/05/09 03:52:22;;;;;;;;;;;;;;;12.40;77.04;93379.56;2072224;69;20054;-72
2022/05/09 03:54:48;;;;;;;;;;;;;;;12.34;77.59;93374.25;2072080;69;20057;-71
2022/05/09 03:57:13;;;;;;;;;;;;;;;12.44;77.14;93383.38;2059055;69;20134;-73
2022/05/09 03:59:39;;;;;;;;;;;;;;;12.54;75.92;93379.72;2071993;69;20101;-74
2022/05/09 04:02:04;;;;;;;;;;;;;;;12.56;76.26;93379.88;2058757;69;20096;-72
2022/05/09 04:04:29;;;;;;;;;;;;;;;12.36;79.15;93388.50;2058882;69;20195;-71
2022/05/09 04:06:55;;;;;;;;;;;;;;;12.30;79.48;93390.19;2059094;69;20047;-70
2022/05/09 04:09:20;;;;;;;;;;;;;;;12.49;78.14;93392.13;2059265;69;20057;-70
2022/05/09 04:11:47;;;;;;;;;;;;;;;12.53;77.20;93390.28;2059030;69;20054;-71
2022/05/09 04:17:41;;;;;;;;;;;;;;;12.61;77.49;93390.09;2058932;69;20099;-71
2022/05/09 04:20:08;;;;;;;;;;;;;;;12.57;77.23;93387.72;2059000;69;20050;-70
2022/05/09 04:22:34;;;;;;;;;;;;;;;12.58;76.94;93386.38;2058981;69;20070;-70
2022/05/09 04:25:00;;;;;;;;;;;;;;;12.60;76.17;93386.53;2072102;69;20409;-70
2022/05/09 04:27:28;;;;;;;;;;;;;;;12.72;75.23;93387.28;2058909;69;20081;-73
2022/05/09 04:29:55;;;;;;;;;;;;;;;12.70;75.20;93392.81;2058774;69;20153;-71
2022/05/09 04:32:20;;;;;;;;;;;;;;;12.71;75.87;93396.38;2058720;69;20133;-73
2022/05/09 04:34:46;;;;;;;;;;;;;;;12.72;76.33;93395.75;2059056;69;20042;-72
2022/05/09 04:37:12;;;;;;;;;;;;;;;12.72;75.22;93392.94;2071981;69;20078;-73
2022/05/09 04:39:37;;;;;;;;;;;;;;;12.72;74.79;93395.75;2058945;69;20060;-72
2022/05/09 04:42:03;;;;;;;;;;;;;;;12.78;75.47;93400.31;2059029;69;20050;-71
2022/05/09 04:44:28;;;;;;;;;;;;;;;12.87;74.79;93399.50;2058931;69;20535;-73
2022/05/09 04:46:54;;;;;;;;;;;;;;;12.79;76.72;93404.66;2058749;69;20153;-74
2022/05/09 04:49:19;;;;;;;;;;;;;;;12.82;75.38;93401.31;2058919;69;20053;-71
2022/05/09 04:51:45;;;;;;;;;;;;;;;12.80;77.11;93401.19;2059014;69;20143;-71
2022/05/09 04:54:10;;;;;;;;;;;;;;;12.83;76.56;93402.81;2059026;69;20057;-70
2022/05/09 04:56:36;;;;;;;;;;;;;;;12.96;75.27;93407.13;2071868;69;20054;-71
2022/05/09 04:59:03;;;;;;;;;;;;;;;12.98;76.32;93402.34;2058933;69;20053;-74
2022/05/09 05:01:29;;;;;;;;;;;;;;;13.01;77.33;93406.03;2059015;69;20062;-74
2022/05/09 05:03:54;;;;;;;;;;;;;;;13.06;74.22;93415.53;2058833;69;20177;-71
2022/05/09 05:06:20;;;;;;;;;;;;;;;13.16;74.82;93416.91;2071945;69;20442;-71
2022/05/09 05:08:45;;;;;;;;;;;;;;;13.21;74.78;93418.63;2059001;69;20072;-73
2022/05/09 05:11:10;;;;;;;;;;;;;;;13.19;75.80;93417.75;2058877;69;20046;-72
2022/05/09 05:13:36;;;;;;;;;;;;;;;13.22;76.53;93414.47;2058979;69;20150;-73
2022/05/09 05:16:01;;;;;;;;;;;;;;;13.25;76.29;93412.53;2058939;69;20219;-71
2022/05/09 05:18:28;;;;;;;;;;;;;;;13.23;75.81;93418.78;2058890;69;20146;-72
2022/05/09 05:20:54;;;;;;;;;;;;;;;13.31;75.75;93420.63;2058860;69;20057;-71
2022/05/09 05:23:20;;;;;;;;;;;;;;;13.40;75.56;93425.44;2058844;69;20057;-70
2022/05/09 05:25:46;;;;;;;;;;;;;;;13.44;75.23;93423.59;2058847;69;20050;-71
2022/05/09 05:28:13;;;;;;;;;;;;;;;13.46;76.14;93429.38;2058770;69;20060;-70
2022/05/09 05:30:38;;;;;;;;;;;;;;;13.40;76.76;93417.69;2058922;69;20058;-73
2022/05/09 05:33:04;;;;;;;;;;;;;;;13.34;76.65;93425.06;2058837;69;20053;-70
2022/05/09 05:35:30;;;;;;;;;;;;;;;13.22;77.65;93425.03;2058757;69;20644;-72
2022/05/09 05:37:56;;;;;;;;;;;;;;;13.40;73.97;93422.63;2058553;69;20065;-72
2022/05/09 05:40:21;;;;;;;;;;;;;;;13.55;75.37;93427.78;2058812;69;20505;-73
2022/05/09 05:42:52;;;;;;;;;;;;;;;13.54;76.12;93431.97;2071602;69;20050;-71
2022/05/09 05:45:20;;;;;;;;;;;;;;;13.55;75.75;93435.53;2058801;69;20089;-70
2022/05/09 05:47:46;;;;;;;;;;;;;;;13.69;72.94;93431.47;2058624;69;20054;-73
2022/05/09 05:50:12;;;;;;;;;;;;;;;13.68;73.50;93430.00;2058886;69;20082;-72
2022/05/09 05:52:38;;;;;;;;;;;;;;;13.85;74.91;93437.41;2058775;69;20046;-70
2022/05/09 05:55:04;;;;;;;;;;;;;;;13.87;74.98;93434.69;2071962;69;20458;-70
2022/05/09 05:57:31;;;;;;;;;;;;;;;13.94;74.54;93439.38;2072025;69;20050;-71
2022/05/09 06:00:03;;;;;;;;;;;;;;;13.99;73.63;93438.25;2059416;69;20053;-70
2022/05/09 06:02:29;;;;;;;;;;;;;;;13.99;73.78;93440.34;2059147;69;20156;-70
2022/05/09 06:04:54;;;;;;;;;;;;;;;13.98;70.56;93442.44;2059200;69;20529;-71
2022/05/09 06:07:20;;;;;;;;;;;;;;;13.92;73.72;93442.06;2059245;69;20049;-74
2022/05/09 06:09:46;;;;;;;;;;;;;;;13.73;74.96;93440.22;2059464;69;20496;-74
2022/05/09 06:12:14;;;;;;;;;;;;;;;13.93;72.52;93440.00;2059248;69;20062;-74
2022/05/09 06:14:39;;;;;;;;;;;;;;;13.95;72.91;93446.50;2059279;69;20046;-74
2022/05/09 06:17:05;;;;;;;;;;;;;;;14.21;70.77;93446.59;2059181;69;20050;-72
2022/05/09 06:19:31;;;;;;;;;;;;;;;13.96;73.57;93447.97;2059161;69;20442;-74
2022/05/09 06:21:58;;;;;;;;;;;;;;;13.75;75.88;93445.28;2059317;69;20137;-75
2022/05/09 06:24:23;;;;;;;;;;;;;;;13.73;74.47;93448.72;2059227;69;20085;-72
2022/05/09 06:26:50;;;;;;;;;;;;;;;13.98;75.39;93448.09;2059255;69;20624;-74
2022/05/09 06:29:15;;;;;;;;;;;;;;;14.11;73.90;93457.31;2059229;69;20045;-72
2022/05/09 06:31:41;;;;;;;;;;;;;;;14.33;71.49;93449.41;2059357;69;20049;-72
2022/05/09 06:34:11;;;;;;;;;;;;;;;14.23;73.87;93455.22;2059188;69;20042;-72
2022/05/09 06:36:39;;;;;;;;;;;;;;;14.22;70.77;93462.22;2059204;69;20050;-71
2022/05/09 06:39:06;;;;;;;;;;;;;;;14.18;71.88;93451.41;2059374;69;20195;-72
2022/05/09 06:41:32;;;;;;;;;;;;;;;14.47;70.36;93461.56;2059164;69;20076;-71
2022/05/09 06:43:57;;;;;;;;;;;;;;;14.62;69.07;93455.41;2059207;69;20045;-74
2022/05/09 06:46:23;;;;;;;;;;;;;;;14.69;69.54;93450.81;2072275;69;20056;-72
2022/05/09 06:48:48;;;;;;;;;;;;;;;14.68;69.43;93457.84;2059118;69;20052;-75
2022/05/09 06:51:16;;;;;;;;;;;;;;;14.77;69.28;93459.78;2059178;69;20445;-75
2022/05/09 06:53:42;;;;;;;;;;;;;;;14.80;69.66;93450.06;2059306;69;20485;-75
2022/05/09 06:56:08;;;;;;;;;;;;;;;15.02;68.63;93461.16;2058989;69;20053;-73
2022/05/09 06:58:36;;;;;;;;;;;;;;;15.02;68.43;93453.41;2059095;69;20042;-74
2022/05/09 07:01:10;;;;;;;;;;;;;;;15.12;68.84;93456.06;2072295;69;20101;-75
2022/05/09 07:03:36;;;;;;;;;;;;;;;15.17;70.10;93454.94;2059094;69;20078;-74
2022/05/09 07:06:01;;;;;;;;;;;;;;;15.20;69.57;93456.53;2059150;69;20164;-72
2022/05/09 07:08:32;;;;;;;;;;;;;;;15.09;67.41;93454.50;2059059;69;20058;-73
2022/05/09 07:10:57;;;;;;;;;;;;;;;15.08;69.05;93455.84;2059137;69;20453;-70
2022/05/09 07:13:23;;;;;;;;;;;;;;;15.12;69.09;93453.97;2072187;69;20061;-71
2022/05/09 07:15:48;;;;;;;;;;;;;;;15.27;69.18;93452.66;2059112;69;20119;-69
2022/05/09 07:18:14;;;;;;;;;;;;;;;15.46;67.42;93446.63;2058944;69;20111;-73
2022/05/09 07:20:39;;;;;;;;;;;;;;;15.51;69.76;93447.59;2059196;69;20111;-74
2022/05/09 07:23:08;;;;;;;;;;;;;;;15.41;68.05;93453.44;2059089;69;20146;-73
2022/05/09 07:25:34;;;;;;;;;;;;;;;15.25;68.22;93458.22;2072174;69;20632;-72
2022/05/09 07:28:00;;;;;;;;;;;;;;;15.67;68.32;93453.44;2058998;69;20192;-73
2022/05/09 07:30:25;;;;;;;;;;;;;;;15.95;69.06;93457.06;2072092;69;20220;-73
2022/05/09 07:32:52;;;;;;;;;;;;;;;16.39;68.88;93452.94;2059045;69;20054;-74
2022/05/09 07:35:17;;;;;;;;;;;;;;;16.84;69.72;93443.13;2058996;69;20082;-70
2022/05/09 07:37:44;;;;;;;;;;;;;;;17.12;68.45;93446.63;2058987;69;20137;-71
2022/05/09 07:40:11;;;;;;;;;;;;;;;17.23;65.68;93443.63;2072126;69;20539;-71
2022/05/09 07:42:37;;;;;;;;;;;;;;;17.19;63.96;93442.72;2072189;69;20115;-72
2022/05/09 07:45:03;;;;;;;;;;;;;;;17.61;65.42;93449.66;2059131;69;20073;-72
2022/05/09 07:47:29;;;;;;;;;;;;;;;17.48;62.58;93448.38;2059004;69;20054;-71
2022/05/09 07:49:54;;;;;;;;;;;;;;;17.82;63.41;93442.09;2058943;69;20060;-72
2022/05/09 07:52:20;;;;;;;;;;;;;;;18.08;60.76;93448.25;2058996;69;20498;-74
2022/05/09 07:54:46;;;;;;;;;;;;;;;18.53;61.38;93445.97;2059063;69;20549;-73
2022/05/09 07:57:12;;;;;;;;;;;;;;;18.34;58.75;93443.72;2058900;69;20597;-71
2022/05/09 07:59:39;;;;;;;;;;;;;;;19.03;58.41;93446.69;2072043;69;20050;-73
2022/05/09 08:02:04;;;;;;;;;;;;;;;18.61;57.08;93442.03;2059084;69;20486;-73
2022/05/09 08:07:58;;;;;;;;;;;;;;;18.54;53.10;93441.00;2059014;69;20149;-74
2022/05/09 08:10:23;;;;;;;;;;;;;;;17.84;55.83;93440.06;2071954;69;20164;-72
2022/05/09 08:12:49;;;;;;;;;;;;;;;19.05;54.79;93440.31;2058995;69;20042;-75
2022/05/09 08:15:16;;;;;;;;;;;;;;;19.57;54.16;93440.25;2059020;69;20046;-76
2022/05/09 08:17:43;;;;;;;;;;;;;;;19.66;50.42;93439.94;2071936;69;20122;-76
2022/05/09 08:20:09;;;;;;;;;;;;;;;19.43;52.62;93435.44;2058885;69;20074;-73
2022/05/09 08:22:35;;;;;;;;;;;;;;;19.75;49.45;93444.56;2059019;69;20558;-76
2022/05/09 08:25:01;;;;;;;;;;;;;;;19.93;49.10;93440.91;2059033;69;20085;-73
2022/05/09 08:27:27;;;;;;;;;;;;;;;20.40;48.89;93439.81;2071972;69;20050;-74
2022/05/09 08:29:56;;;;;;;;;;;;;;;20.30;48.86;93434.47;2059035;69;20231;-77
2022/05/09 08:32:25;;;;;;;;;;;;;;;21.01;49.90;93436.94;2058861;69;20062;-75
2022/05/09 08:34:51;;;;;;;;;;;;;;;21.02;48.87;93431.97;2058957;69;20042;-74
2022/05/09 08:37:20;;;;;;;;;;;;;;;21.20;47.06;93432.56;2058832;69;20565;-73
2022/05/09 08:43:13;;;;;;;;;;;;;;;21.85;48.05;93425.31;2059091;69;20420;-74
2022/05/09 08:45:42;;;;;;;;;;;;;;;22.12;47.09;93426.13;2071684;69;20054;-76
2022/05/09 08:51:47;;;;;;;;;;;;;;;22.72;42.38;93429.25;2059024;69;20496;-73
2022/05/09 08:54:17;;;;;;;;;;;;;;;22.17;44.39;93425.56;2072011;69;20069;-76
2022/05/09 08:56:45;;;;;;;;;;;;;;;22.20;43.22;93421.38;2059027;69;20504;-77
2022/05/09 08:59:13;;;;;;;;;;;;;;;22.04;45.46;93426.63;2059051;69;20070;-75
2022/05/09 09:01:38;;;;;;;;;;;;;;;22.55;45.05;93433.81;2072094;69;20492;-77
2022/05/09 09:04:05;;;;;;;;;;;;;;;23.49;44.85;93431.25;2058858;69;20544;-73
2022/05/09 09:06:43;;;;;;;;;;;;;;;24.16;44.08;93437.13;2059074;69;20048;-78
2022/05/09 09:09:27;;;;;;;;;;;;;;;23.72;43.24;93435.41;2058879;69;20052;-75
2022/05/09 09:12:01;;;;;;;;;;;;;;;21.83;43.78;93425.25;2058989;69;20066;-73
2022/05/09 09:14:50;;;;;;;;;;;;;;;22.31;45.13;93423.13;2058839;69;20421;-78
2022/05/09 09:17:32;;;;;;;;;;;;;;;23.18;41.06;93429.75;2056857;69;20058;-79
2022/05/09 09:20:07;;;;;;;;;;;;;;;23.40;42.26;93429.59;2058698;69;20504;-76
2022/05/09 09:22:49;;;;;;;;;;;;;;;23.86;42.59;93431.41;2058998;69;20505;-77
2022/05/09 09:25:33;;;;;;;;;;;;;;;22.62;40.98;93431.84;2059060;69;20165;-77
2022/05/09 09:28:05;;;;;;;;;;;;;;;23.58;41.14;93421.41;2058817;69;20054;-76
2022/05/09 09:30:31;;;;;;;;;;;;;;;23.77;41.90;93416.13;2071940;69;20061;-76
2022/05/09 09:33:01;;;;;;;;;;;;;;;24.18;40.70;93414.88;2059168;69;20433;-76
2022/05/09 09:35:36;;;;;;;;;;;;;;;24.91;39.99;93415.63;2072421;69;20053;-74
2022/05/09 09:38:05;;;;;;;;;;;;;;;25.75;39.88;93411.28;2059338;69;20082;-74
2022/05/09 09:40:31;;;;;;;;;;;;;;;25.94;38.60;93410.19;2059348;69;20113;-74
2022/05/09 09:42:56;;;;;;;;;;;;;;;24.58;39.00;93409.25;2059404;69;20462;-75
2022/05/09 09:45:26;;;;;;;;;;;;;;;25.32;36.08;93402.69;2059360;69;20069;-77
2022/05/09 09:48:05;;;;;;;;;;;;;;;25.09;37.94;93401.56;2058986;69;20250;-74
2022/05/09 09:50:31;;;;;;;;;;;;;;;25.69;38.12;93400.41;2059370;69;20054;-77
2022/05/09 09:52:58;;;;;;;;;;;;;;;25.75;36.60;93394.75;2059297;69;20421;-78
2022/05/09 09:55:34;;;;;;;;;;;;;;;25.92;36.23;93389.22;2059177;69;20450;-75
2022/05/09 09:58:18;;;;;;;;;;;;;;;24.92;35.25;93399.06;2059220;69;20052;-74
2022/05/09 10:00:44;;;;;;;;;;;;;;;26.50;37.41;93382.81;2072461;69;20066;-74
2022/05/09 10:03:15;;;;;;;;;;;;;;;27.27;35.64;93383.63;2072280;69;20049;-75
2022/05/09 10:05:43;;;;;;;;;;;;;;;27.31;33.73;93385.84;2059459;69;20042;-73
2022/05/09 10:08:24;;;;;;;;;;;;;;;27.30;35.08;93387.25;2059394;69;20050;-75
2022/05/09 10:10:54;;;;;;;;;;;;;;;27.55;32.37;93380.25;2059190;69;20053;-73
2022/05/09 10:13:21;;;;;;;;;;;;;;;27.05;31.75;93377.63;2059262;69;20058;-75
2022/05/09 10:16:00;;;;;;;;;;;;;;;26.46;34.72;93374.81;2059354;69;20084;-76
2022/05/09 10:18:30;;;;;;;;;;;;;;;27.21;31.93;93369.09;2059239;69;20137;-76
2022/05/09 10:20:55;;;;;;;;;;;;;;;27.72;32.91;93363.78;2059477;69;20047;-79
2022/05/09 10:26:29;;;;;;;;;;;;;;;28.63;31.98;93363.53;2059221;69;20112;-78
2022/05/09 10:29:05;;;;;;;;;;;;;;;28.30;30.38;93353.97;2058962;69;20432;-77
2022/05/09 10:31:37;;;;;;;;;;;;;;;29.06;32.61;93351.38;2059264;69;20150;-78
2022/05/09 10:34:10;;;;;;;;;;;;;;;28.40;30.52;93347.53;2059257;69;20117;-80
2022/05/09 10:36:42;;;;;;;;;;;;;;;29.85;30.33;93350.66;2059334;69;20490;-77
2022/05/09 10:39:15;;;;;;;;;;;;;;;28.23;29.92;93343.09;2059421;69;20111;-74
2022/05/09 10:41:43;;;;;;;;;;;;;;;30.32;28.96;93353.47;2059142;69;20641;-76
2022/05/09 10:44:15;;;;;;;;;;;;;;;29.69;29.03;93342.72;2058948;69;20053;-75
2022/05/09 10:46:49;;;;;;;;;;;;;;;28.41;29.06;93331.63;2072349;69;20058;-75
2022/05/09 10:49:33;;;;;;;;;;;;;;;31.13;27.95;93338.59;2059171;69;20418;-74
2022/05/09 10:52:04;;;;;;;;;;;;;;;33.09;25.96;93333.75;2059336;69;20050;-74
2022/05/09 10:54:30;;;;;;;;;;;;;;;30.83;26.34;93332.94;2059231;69;20120;-75
2022/05/09 10:57:11;;;;;;;;;;;;;;;32.16;24.82;93323.19;2059091;69;20164;-74
2022/05/09 11:03:17;;;;;;;;;;;;;;;40.06;18.69;93327.09;2058815;69;20049;-76
2022/05/09 11:06:03;;;;;;;;;;;;;;;39.75;19.13;93324.69;2059184;69;20081;-74
2022/05/09 11:08:31;;;;;;;;;;;;;;;37.12;19.56;93320.59;2052154;69;20142;-75
2022/05/09 11:11:16;;;;;;;;;;;;;;;40.36;18.50;93322.16;2059153;69;20050;-75
2022/05/09 11:13:51;;;;;;;;;;;;;;;36.56;19.88;93309.03;2059127;69;20046;-75
2022/05/09 11:16:30;;;;;;;;;;;;;;;42.00;16.86;93315.41;2059088;69;20050;-74
2022/05/09 11:22:23;;;;;;;;;;;;;;;36.76;20.65;93301.84;2059229;69;20187;-75
2022/05/09 11:25:07;;;;;;;;;;;;;;;33.74;22.27;93281.69;2059137;69;20050;-76
2022/05/09 11:27:51;;;;;;;;;;;;;;;35.98;21.27;93285.66;2059046;69;20082;-75
2022/05/09 11:30:21;;;;;;;;;;;;;;;31.54;25.10;93276.50;2059247;69;20141;-76
2022/05/09 11:32:52;;;;;;;;;;;;;;;34.27;22.65;93289.47;2059104;69;20490;-77
2022/05/09 11:35:34;;;;;;;;;;;;;;;30.98;25.61;93272.56;2059135;69;20046;-76
2022/05/09 11:38:01;;;;;;;;;;;;;;;31.43;25.39;93275.13;2059208;69;20220;-77
2022/05/09 11:40:33;;;;;;;;;;;;;;;31.03;25.36;93260.16;2059150;69;20165;-75
2022/05/09 11:43:28;;;;;;;;;;;;;;;32.58;23.93;93260.81;2059266;69;20560;-74
2022/05/09 11:45:59;;;;;;;;;;;;;;;29.50;25.56;93260.75;2057396;69;20095;-75
2022/05/09 11:48:34;;;;;;;;;;;;;;;30.37;26.10;93256.88;2059071;69;20046;-73
2022/05/09 11:51:02;;;;;;;;;;;;;;;32.26;26.12;93251.00;2059125;69;20056;-76
2022/05/09 11:53:30;;;;;;;;;;;;;;;30.74;24.86;93256.72;2059079;69;20046;-74
2022/05/09 11:55:56;;;;;;;;;;;;;;;31.02;27.91;93246.34;2058995;69;20056;-75
2022/05/09 11:58:24;;;;;;;;;;;;;;;31.86;23.51;93250.00;2058996;69;20146;-74
2022/05/09 12:00:50;;;;;;;;;;;;;;;33.23;23.94;93238.75;2059020;69;20057;-77
2022/05/09 12:03:36;;;;;;;;;;;;;;;36.82;21.14;93245.91;2059208;69;20054;-75
2022/05/09 12:06:03;;;;;;;;;;;;;;;40.59;18.58;93257.00;2059008;69;20046;-77
2022/05/09 12:08:48;;;;;;;;;;;;;;;41.59;16.94;93255.31;2059059;69;20052;-74
2022/05/09 12:11:17;;;;;;;;;;;;;;;41.27;15.65;93246.50;2058430;69;20054;-71
2022/05/09 12:13:43;;;;;;;;;;;;;;;39.35;16.79;93242.31;2058872;69;20105;-76
2022/05/09 12:16:10;;;;;;;;;;;;;;;39.07;16.41;93244.88;2058868;69;20058;-75
2022/05/09 12:18:55;;;;;;;;;;;;;;;41.46;15.89;93243.38;2058697;69;20141;-74
2022/05/09 12:21:23;;;;;;;;;;;;;;;42.62;14.64;93239.81;2058733;69;20054;-75
2022/05/09 12:23:50;;;;;;;;;;;;;;;41.53;15.69;93229.03;2058856;69;20483;-73
2022/05/09 12:26:32;;;;;;;;;;;;;;;43.84;15.30;93229.34;2071689;69;20205;-75
2022/05/09 12:29:26;;;;;;;;;;;;;;;41.24;15.67;93218.59;2059026;69;20097;-72
2022/05/09 12:31:56;;;;;;;;;;;;;;;41.27;15.02;93213.28;2058829;69;20060;-74
2022/05/09 12:34:27;;;;;;;;;;;;;;;43.17;14.23;93215.38;2058822;69;20080;-74
2022/05/09 12:36:52;;;;;;;;;;;;;;;41.96;12.90;93218.06;2058900;69;20177;-78
2022/05/09 12:39:25;;;;;;;;;;;;;;;45.88;12.25;93228.63;2058814;69;20066;-71
2022/05/09 12:41:53;;;;;;;;;;;;;;;44.68;12.72;93218.47;2058980;69;20494;-71
2022/05/09 12:44:29;;;;;;;;;;;;;;;46.10;12.07;93221.19;2058863;69;20123;-72
2022/05/09 12:47:00;;;;;;;;;;;;;;;45.46;10.72;93211.34;2058748;69;20061;-72
2022/05/09 12:49:42;;;;;;;;;;;;;;;44.18;11.34;93205.84;2058677;69;20477;-75
2022/05/09 12:52:10;;;;;;;;;;;;;;;47.59;11.47;93201.09;2058823;69;20045;-72
2022/05/09 12:54:39;;;;;;;;;;;;;;;44.10;11.97;93189.25;2058990;69;20194;-75
2022/05/09 12:57:05;;;;;;;;;;;;;;;42.26;12.60;93183.25;2058866;69;20137;-78
2022/05/09 12:59:47;;;;;;;;;;;;;;;43.08;12.75;93177.34;2058824;69;20199;-76
2022/05/09 13:02:21;;;;;;;;;;;;;;;43.55;12.25;93176.94;2058797;69;20429;-78
2022/05/09 13:04:47;;;;;;;;;;;;;;;41.37;13.15;93171.47;2058860;69;20050;-72
2022/05/09 13:07:13;;;;;;;;;;;;;;;43.11;11.29;93172.00;2058596;69;20573;-72
2022/05/09 13:09:47;;;;;;;;;;;;;;;42.61;12.34;93171.00;2058880;69;20042;-70
2022/05/09 13:12:22;;;;;;;;;;;;;;;44.36;11.55;93163.22;2058753;69;20134;-71
2022/05/09 13:14:50;;;;;;;;;;;;;;;39.92;13.81;93151.59;2071726;69;20048;-71
2022/05/09 13:17:18;;;;;;;;;;;;;;;36.69;15.73;93138.56;2058807;69;20219;-70
2022/05/09 13:23:12;;;;;;;;;;;;;;;34.82;17.25;93137.03;2058805;69;20139;-71
2022/05/09 13:25:39;;;;;;;;;;;;;;;34.57;17.83;93130.31;2058934;69;20470;-71
2022/05/09 13:28:09;;;;;;;;;;;;;;;33.95;17.00;93118.47;2058789;69;20160;-73
2022/05/09 13:30:35;;;;;;;;;;;;;;;34.64;19.50;93123.56;2058754;69;20154;-72
2022/05/09 13:33:02;;;;;;;;;;;;;;;33.45;16.41;93123.84;2058683;69;20050;-72
2022/05/09 13:35:35;;;;;;;;;;;;;;;34.34;20.06;93118.41;2071801;69;20065;-69
2022/05/09 13:38:22;;;;;;;;;;;;;;;33.92;19.20;93120.72;2058580;69;20057;-71
2022/05/09 13:44:19;;;;;;;;;;;;;;;32.46;18.58;93107.28;2058713;69;20500;-74
2022/05/09 13:46:47;;;;;;;;;;;;;;;32.41;20.43;93105.91;2058735;69;20490;-74
2022/05/09 13:49:14;;;;;;;;;;;;;;;31.52;19.34;93105.59;2071689;69;20077;-73
2022/05/09 13:51:41;;;;;;;;;;;;;;;31.71;20.60;93097.34;2071768;69;20529;-71
2022/05/09 13:54:08;;;;;;;;;;;;;;;31.41;20.36;93100.63;2071754;69;20050;-71
2022/05/09 13:56:35;;;;;;;;;;;;;;;30.68;20.79;93099.09;2058851;69;20072;-71
2022/05/09 13:59:02;;;;;;;;;;;;;;;29.75;21.57;93090.28;2058674;69;20061;-71
2022/05/09 14:01:37;;;;;;;;;;;;;;;29.33;22.34;93096.97;2058499;69;20054;-70
2022/05/09 14:04:04;;;;;;;;;;;;;;;28.82;22.20;93094.16;2058468;69;20465;-71
2022/05/09 14:06:31;;;;;;;;;;;;;;;29.45;22.02;93104.88;2058581;69;20103;-73